Independence — WDD6659 — position and weather

sailwx.info

Track history (hours):
 
Tides and Currents Weather Stations Pressure Air Temp Water Temp Dewpoint Dewpoint Depression Visibility Wind Speed Wind Dir Waves Ship Positions

Independence

More information available from US FCC via Universal Licensing System and Coast Guard Vessel Documentation Center.

Last reported at 2014-Sep-16 14:33 UTC. Time now 2014-Sep-16 15:31 UTC.
Position N 37°54' W 122°22'.

Length 24 m; draft 4.9 m.

Type: Tug. MMSI: 367175860.

Date/timePositionNaut miles runAvg speedWind from/ knotsBaromVisibWave heightAir tempDewpointWater temp
2014-Sep-16 14:33N 37°54' W 122°22'1 0.5
2014-Sep-16 13:33N 37°55' W 122°22'0 0.0
2014-Sep-16 12:33N 37°55' W 122°22'0 0.0
2014-Sep-16 11:33N 37°55' W 122°22'0 0.0
2014-Sep-16 10:33N 37°55' W 122°22'0 0.0
2014-Sep-16 09:33N 37°55' W 122°22'0 0.0
2014-Sep-16 08:33N 37°55' W 122°22'0 0.0
2014-Sep-16 07:33N 37°55' W 122°22'0 0.0
2014-Sep-16 06:33N 37°55' W 122°22'1 1.0
2014-Sep-16 05:33N 37°54' W 122°23'9 8.6
2014-Sep-16 04:33N 38°03' W 122°19'5 5.2
2014-Sep-16 03:33N 38°03' W 122°13'5 4.8
2014-Sep-16 02:33N 38°03' W 122°19'9 9.0
2014-Sep-16 01:33N 37°55' W 122°25'1 1.1
2014-Sep-16 00:33N 37°54' W 122°24'8 8.0
2014-Sep-15 23:33N 38°02' W 122°21'10 0.2
2014-Sep-14 02:30N 38°03' W 122°08'0 0.0
2014-Sep-14 01:03N 38°03' W 122°08'0 0.0
2014-Sep-13 13:24N 38°02' W 122°08'0 0.2
2014-Sep-13 12:08N 38°02' W 122°08'0 0.1
2014-Sep-13 11:15N 38°02' W 122°08'0 0.3
2014-Sep-13 10:33N 38°03' W 122°08'0 0.0
2014-Sep-13 09:33N 38°03' W 122°08'0 0.0
2014-Sep-13 08:05N 38°03' W 122°08'0 0.0
2014-Sep-13 07:09N 38°03' W 122°08'0 0.0
2014-Sep-13 06:30N 38°03' W 122°08'0 0.0
2014-Sep-13 05:23N 38°03' W 122°08'0 0.0
2014-Sep-13 04:33N 38°03' W 122°08'0 0.0
2014-Sep-13 03:27N 38°03' W 122°08'0 0.0
2014-Sep-13 02:30N 38°03' W 122°08'0 0.0
2014-Sep-13 01:33N 38°03' W 122°08'1 0.7
2014-Sep-13 00:31N 38°02' W 122°08'0 0.1
2014-Sep-12 23:34N 38°02' W 122°08'1 0.3
2014-Sep-12 21:26N 38°03' W 122°08'1 0.6
2014-Sep-12 20:32N 38°02' W 122°08'1 0.1
2014-Sep-12 16:16N 38°03' W 122°08'0 0.0
2014-Sep-12 15:33N 38°03' W 122°08'0 0.0
2014-Sep-12 14:33N 38°03' W 122°08'0 0.0
2014-Sep-12 13:32N 38°03' W 122°08'6 6.4
2014-Sep-12 12:33N 38°03' W 122°16'1 0.9
2014-Sep-12 11:33N 38°03' W 122°17'5 4.7
2014-Sep-12 10:33N 38°02' W 122°23'5 5.3
2014-Sep-12 09:34N 37°58' W 122°27'3 2.8
2014-Sep-12 08:34N 37°55' W 122°26'3 3.3
2014-Sep-12 07:33N 37°52' W 122°24'5 5.4
2014-Sep-12 06:34N 37°49' W 122°30'1 0.6
2014-Sep-12 05:33N 37°48' W 122°30'4 3.7
2014-Sep-12 04:33N 37°49' W 122°25'5 5.4
2014-Sep-12 03:33N 37°49' W 122°19'0 0.0
2014-Sep-12 02:33N 37°49' W 122°19'0 0.0
2014-Sep-12 01:33N 37°49' W 122°19'0 0.0
2014-Sep-12 00:33N 37°49' W 122°19'0 0.0
2014-Sep-11 23:33N 37°49' W 122°19'2 1.6
2014-Sep-11 22:33N 37°48' W 122°19'1 1.0
2014-Sep-11 21:34N 37°48' W 122°21'1 0.7
2014-Sep-11 20:34N 37°49' W 122°20'1 1.1
2014-Sep-11 19:33N 37°49' W 122°19'0 0.0
2014-Sep-11 18:33N 37°49' W 122°19'0 0.0
2014-Sep-11 17:34N 37°49' W 122°19'0 0.1
2014-Sep-11 16:33N 37°49' W 122°19'0 0.1
2014-Sep-11 15:33N 37°49' W 122°19'0 0.0
2014-Sep-11 14:33N 37°49' W 122°19'0 0.0
2014-Sep-11 13:33N 37°49' W 122°19'0 0.0
2014-Sep-11 12:33N 37°49' W 122°19'0 0.0
2014-Sep-11 11:33N 37°49' W 122°19'0 0.0
2014-Sep-11 10:33N 37°49' W 122°19'0 0.0
2014-Sep-11 09:33N 37°49' W 122°19'0 0.0
2014-Sep-11 08:33N 37°49' W 122°19'0 0.0
2014-Sep-11 07:33N 37°49' W 122°19'0 0.0
2014-Sep-11 06:33N 37°49' W 122°19'0 0.0
2014-Sep-11 05:33N 37°49' W 122°19'0 0.0
2014-Sep-11 04:33N 37°49' W 122°19'0 0.0
2014-Sep-11 03:33N 37°49' W 122°19'0 0.0
2014-Sep-11 02:33N 37°49' W 122°19'1 0.6
2014-Sep-11 01:33N 37°49' W 122°19'0 0.0
2014-Sep-11 00:33N 37°49' W 122°19'0 0.1
2014-Sep-10 23:34N 37°49' W 122°19'2 1.9
2014-Sep-10 22:34N 37°48' W 122°22'2 2.5
2014-Sep-10 21:33N 37°49' W 122°19'0 0.0
2014-Sep-10 20:33N 37°49' W 122°19'0 0.0
2014-Sep-10 19:33N 37°49' W 122°19'0 0.0
2014-Sep-10 18:33N 37°49' W 122°19'0 0.0
2014-Sep-10 17:33N 37°49' W 122°19'0 0.0
2014-Sep-10 16:33N 37°49' W 122°19'0 0.0
2014-Sep-10 15:33N 37°49' W 122°19'0 0.0
2014-Sep-10 14:33N 37°49' W 122°19'2 1.6
2014-Sep-10 13:33N 37°48' W 122°19'0 0.1
2014-Sep-10 12:33N 37°48' W 122°19'2 1.5
2014-Sep-10 11:33N 37°49' W 122°19'0 0.0
2014-Sep-10 10:33N 37°49' W 122°19'0 0.0
2014-Sep-10 09:33N 37°49' W 122°19'0 0.0
2014-Sep-10 08:33N 37°49' W 122°19'0 0.0
2014-Sep-10 07:33N 37°49' W 122°19'0 0.0
2014-Sep-10 06:33N 37°49' W 122°19'0 0.0
2014-Sep-10 05:33N 37°49' W 122°19'0 0.0
2014-Sep-10 04:33N 37°49' W 122°19'0 0.0
2014-Sep-10 03:33N 37°49' W 122°19'0 0.0
2014-Sep-10 02:33N 37°49' W 122°19'0 0.0
2014-Sep-10 01:33N 37°49' W 122°19'0 0.4
2014-Sep-10 00:34N 37°49' W 122°19'2 2.4
2014-Sep-09 23:34N 37°48' W 122°22'1 1.0
2014-Sep-09 22:33N 37°48' W 122°21'0 0.0
2014-Sep-09 21:33N 37°48' W 122°21'0 0.0
2014-Sep-09 20:33N 37°48' W 122°21'2 1.8
2014-Sep-09 19:33N 37°48' W 122°18'0 0.1
2014-Sep-09 18:33N 37°48' W 122°18'2 1.7
2014-Sep-09 17:33N 37°49' W 122°19'0 0.0
2014-Sep-09 16:33N 37°49' W 122°19'0 0.0
2014-Sep-09 15:33N 37°49' W 122°19'0 0.0
2014-Sep-09 14:33N 37°49' W 122°19'1 0.7
2014-Sep-09 13:33N 37°49' W 122°19'0 0.1
2014-Sep-09 12:33N 37°49' W 122°19'1 0.6
2014-Sep-09 11:33N 37°49' W 122°19'0 0.0
2014-Sep-09 10:33N 37°49' W 122°19'0 0.0
2014-Sep-09 09:33N 37°49' W 122°19'0 0.0
2014-Sep-09 08:33N 37°49' W 122°19'0 0.0
2014-Sep-09 07:33N 37°49' W 122°19'0 0.0
2014-Sep-09 06:33N 37°49' W 122°19'0 0.0
2014-Sep-09 05:33N 37°49' W 122°19'0 0.0
2014-Sep-09 04:33N 37°49' W 122°19'0 0.0
2014-Sep-09 03:33N 37°49' W 122°19'0 0.0
2014-Sep-09 02:33N 37°49' W 122°19'0 0.0
2014-Sep-09 01:33N 37°49' W 122°19'2 1.6
2014-Sep-09 00:33N 37°48' W 122°19'1 1.0
2014-Sep-08 23:33N 37°48' W 122°18'3 3.2
2014-Sep-08 22:33N 37°48' W 122°22'3 2.8
2014-Sep-08 21:33N 37°49' W 122°19'0 0.0
2014-Sep-08 20:33N 37°49' W 122°19'0 0.0
2014-Sep-08 19:33N 37°49' W 122°19'0 0.0
2014-Sep-08 18:33N 37°49' W 122°19'0 0.0
2014-Sep-08 17:33N 37°49' W 122°19'0 0.0
2014-Sep-08 16:33N 37°49' W 122°19'0 0.0
2014-Sep-08 15:33N 37°49' W 122°19'0 0.0
2014-Sep-08 14:33N 37°49' W 122°19'0 0.0
2014-Sep-08 13:33N 37°49' W 122°19'0 0.0
2014-Sep-08 12:33N 37°49' W 122°19'0 0.0
2014-Sep-08 11:33N 37°49' W 122°19'0 0.0
2014-Sep-08 10:33N 37°49' W 122°19'0 0.0
2014-Sep-08 09:33N 37°49' W 122°19'0 0.0
2014-Sep-08 08:33N 37°49' W 122°19'0 0.0
2014-Sep-08 07:33N 37°49' W 122°19'0 0.0
2014-Sep-08 06:33N 37°49' W 122°19'0 0.0
2014-Sep-08 05:33N 37°49' W 122°19'0 0.0
2014-Sep-08 04:33N 37°49' W 122°19'0 0.0
2014-Sep-08 03:33N 37°49' W 122°19'0 0.0
2014-Sep-08 02:34N 37°49' W 122°19'0 0.0
2014-Sep-08 01:33N 37°49' W 122°19'0 0.0
2014-Sep-08 00:33N 37°49' W 122°19'0 0.0
2014-Sep-07 23:33N 37°49' W 122°19'0 0.0
2014-Sep-07 22:34N 37°49' W 122°19'0 0.0
2014-Sep-07 21:33N 37°49' W 122°19'0 0.0
2014-Sep-07 20:33N 37°49' W 122°19'0 0.0
2014-Sep-07 19:33N 37°49' W 122°19'0 0.0
2014-Sep-07 18:33N 37°49' W 122°19'0 0.0
2014-Sep-07 17:33N 37°49' W 122°19'0 0.0
2014-Sep-07 16:33N 37°49' W 122°19'0 0.0
2014-Sep-07 15:33N 37°49' W 122°19'0 0.0
2014-Sep-07 14:33N 37°49' W 122°19'0 0.0
2014-Sep-07 13:33N 37°49' W 122°19'0 0.0
2014-Sep-07 12:33N 37°49' W 122°19'0 0.0
2014-Sep-07 11:33N 37°49' W 122°19'0 0.0
2014-Sep-07 10:33N 37°49' W 122°19'0 0.0
2014-Sep-07 09:33N 37°49' W 122°19'0 0.0
2014-Sep-07 08:33N 37°49' W 122°19'0 0.0
2014-Sep-07 07:33N 37°49' W 122°19'0 0.0
2014-Sep-07 06:33N 37°49' W 122°19'0 0.0
2014-Sep-07 05:33N 37°49' W 122°19'0 0.0
2014-Sep-07 04:33N 37°49' W 122°19'0 0.0
2014-Sep-07 03:33N 37°49' W 122°19'0 0.0
2014-Sep-07 02:33N 37°49' W 122°19'1 0.7
2014-Sep-07 01:33N 37°49' W 122°19'0 0.1
2014-Sep-07 00:33N 37°49' W 122°19'2 1.8
2014-Sep-06 23:33N 37°48' W 122°21'2 2.5
2014-Sep-06 22:33N 37°49' W 122°19'0 0.0
2014-Sep-06 21:34N 37°49' W 122°19'0 0.0
2014-Sep-06 20:33N 37°49' W 122°19'0 0.0
2014-Sep-06 19:33N 37°49' W 122°19'0 0.0
2014-Sep-06 18:34N 37°49' W 122°19'0 0.0
2014-Sep-06 17:33N 37°49' W 122°19'0 0.0
2014-Sep-06 16:34N 37°49' W 122°19'0 0.0
2014-Sep-06 15:34N 37°49' W 122°19'0 0.0
2014-Sep-06 14:34N 37°49' W 122°19'  
Track history (hours):
 
Tides and Currents Weather Stations Pressure Air Temp Water Temp Dewpoint Dewpoint Depression Visibility Wind Speed Wind Dir Waves Ship Positions

Independence

More information available from US FCC via Universal Licensing System and Coast Guard Vessel Documentation Center.

Last reported at 2014-Sep-16 14:33 UTC. Time now 2014-Sep-16 15:31 UTC.
Position N 37°54' W 122°22'.

Length 24 m; draft 4.9 m.

Type: Tug. MMSI: 367175860.

Date/timePositionNaut miles runAvg speedWind from/ knotsBaromVisibWave heightAir tempDewpointWater temp
2014-Sep-16 14:33N 37°54' W 122°22'1 0.5
2014-Sep-16 13:33N 37°55' W 122°22'0 0.0
2014-Sep-16 12:33N 37°55' W 122°22'0 0.0
2014-Sep-16 11:33N 37°55' W 122°22'0 0.0
2014-Sep-16 10:33N 37°55' W 122°22'0 0.0
2014-Sep-16 09:33N 37°55' W 122°22'0 0.0
2014-Sep-16 08:33N 37°55' W 122°22'0 0.0
2014-Sep-16 07:33N 37°55' W 122°22'0 0.0
2014-Sep-16 06:33N 37°55' W 122°22'1 1.0
2014-Sep-16 05:33N 37°54' W 122°23'9 8.6
2014-Sep-16 04:33N 38°03' W 122°19'5 5.2
2014-Sep-16 03:33N 38°03' W 122°13'5 4.8
2014-Sep-16 02:33N 38°03' W 122°19'9 9.0
2014-Sep-16 01:33N 37°55' W 122°25'1 1.1
2014-Sep-16 00:33N 37°54' W 122°24'8 8.0
2014-Sep-15 23:33N 38°02' W 122°21'10 0.2
2014-Sep-14 02:30N 38°03' W 122°08'0 0.0
2014-Sep-14 01:03N 38°03' W 122°08'0 0.0
2014-Sep-13 13:24N 38°02' W 122°08'0 0.2
2014-Sep-13 12:08N 38°02' W 122°08'0 0.1
2014-Sep-13 11:15N 38°02' W 122°08'0 0.3
2014-Sep-13 10:33N 38°03' W 122°08'0 0.0
2014-Sep-13 09:33N 38°03' W 122°08'0 0.0
2014-Sep-13 08:05N 38°03' W 122°08'0 0.0
2014-Sep-13 07:09N 38°03' W 122°08'0 0.0
2014-Sep-13 06:30N 38°03' W 122°08'0 0.0
2014-Sep-13 05:23N 38°03' W 122°08'0 0.0
2014-Sep-13 04:33N 38°03' W 122°08'0 0.0
2014-Sep-13 03:27N 38°03' W 122°08'0 0.0
2014-Sep-13 02:30N 38°03' W 122°08'0 0.0
2014-Sep-13 01:33N 38°03' W 122°08'1 0.7
2014-Sep-13 00:31N 38°02' W 122°08'0 0.1
2014-Sep-12 23:34N 38°02' W 122°08'1 0.3
2014-Sep-12 21:26N 38°03' W 122°08'1 0.6
2014-Sep-12 20:32N 38°02' W 122°08'1 0.1
2014-Sep-12 16:16N 38°03' W 122°08'0 0.0
2014-Sep-12 15:33N 38°03' W 122°08'0 0.0
2014-Sep-12 14:33N 38°03' W 122°08'0 0.0
2014-Sep-12 13:32N 38°03' W 122°08'6 6.4
2014-Sep-12 12:33N 38°03' W 122°16'1 0.9
2014-Sep-12 11:33N 38°03' W 122°17'5 4.7
2014-Sep-12 10:33N 38°02' W 122°23'5 5.3
2014-Sep-12 09:34N 37°58' W 122°27'3 2.8
2014-Sep-12 08:34N 37°55' W 122°26'3 3.3
2014-Sep-12 07:33N 37°52' W 122°24'5 5.4
2014-Sep-12 06:34N 37°49' W 122°30'1 0.6
2014-Sep-12 05:33N 37°48' W 122°30'4 3.7
2014-Sep-12 04:33N 37°49' W 122°25'5 5.4
2014-Sep-12 03:33N 37°49' W 122°19'0 0.0
2014-Sep-12 02:33N 37°49' W 122°19'0 0.0
2014-Sep-12 01:33N 37°49' W 122°19'0 0.0
2014-Sep-12 00:33N 37°49' W 122°19'0 0.0
2014-Sep-11 23:33N 37°49' W 122°19'2 1.6
2014-Sep-11 22:33N 37°48' W 122°19'1 1.0
2014-Sep-11 21:34N 37°48' W 122°21'1 0.7
2014-Sep-11 20:34N 37°49' W 122°20'1 1.1
2014-Sep-11 19:33N 37°49' W 122°19'0 0.0
2014-Sep-11 18:33N 37°49' W 122°19'0 0.0
2014-Sep-11 17:34N 37°49' W 122°19'0 0.1
2014-Sep-11 16:33N 37°49' W 122°19'0 0.1
2014-Sep-11 15:33N 37°49' W 122°19'0 0.0
2014-Sep-11 14:33N 37°49' W 122°19'0 0.0
2014-Sep-11 13:33N 37°49' W 122°19'0 0.0
2014-Sep-11 12:33N 37°49' W 122°19'0 0.0
2014-Sep-11 11:33N 37°49' W 122°19'0 0.0
2014-Sep-11 10:33N 37°49' W 122°19'0 0.0
2014-Sep-11 09:33N 37°49' W 122°19'0 0.0
2014-Sep-11 08:33N 37°49' W 122°19'0 0.0
2014-Sep-11 07:33N 37°49' W 122°19'0 0.0
2014-Sep-11 06:33N 37°49' W 122°19'0 0.0
2014-Sep-11 05:33N 37°49' W 122°19'0 0.0
2014-Sep-11 04:33N 37°49' W 122°19'0 0.0
2014-Sep-11 03:33N 37°49' W 122°19'0 0.0
2014-Sep-11 02:33N 37°49' W 122°19'1 0.6
2014-Sep-11 01:33N 37°49' W 122°19'0 0.0
2014-Sep-11 00:33N 37°49' W 122°19'0 0.1
2014-Sep-10 23:34N 37°49' W 122°19'2 1.9
2014-Sep-10 22:34N 37°48' W 122°22'2 2.5
2014-Sep-10 21:33N 37°49' W 122°19'0 0.0
2014-Sep-10 20:33N 37°49' W 122°19'0 0.0
2014-Sep-10 19:33N 37°49' W 122°19'0 0.0
2014-Sep-10 18:33N 37°49' W 122°19'0 0.0
2014-Sep-10 17:33N 37°49' W 122°19'0 0.0
2014-Sep-10 16:33N 37°49' W 122°19'0 0.0
2014-Sep-10 15:33N 37°49' W 122°19'0 0.0
2014-Sep-10 14:33N 37°49' W 122°19'2 1.6
2014-Sep-10 13:33N 37°48' W 122°19'0 0.1
2014-Sep-10 12:33N 37°48' W 122°19'2 1.5
2014-Sep-10 11:33N 37°49' W 122°19'0 0.0
2014-Sep-10 10:33N 37°49' W 122°19'0 0.0
2014-Sep-10 09:33N 37°49' W 122°19'0 0.0
2014-Sep-10 08:33N 37°49' W 122°19'0 0.0
2014-Sep-10 07:33N 37°49' W 122°19'0 0.0
2014-Sep-10 06:33N 37°49' W 122°19'0 0.0
2014-Sep-10 05:33N 37°49' W 122°19'0 0.0
2014-Sep-10 04:33N 37°49' W 122°19'0 0.0
2014-Sep-10 03:33N 37°49' W 122°19'0 0.0
2014-Sep-10 02:33N 37°49' W 122°19'0 0.0
2014-Sep-10 01:33N 37°49' W 122°19'0 0.4
2014-Sep-10 00:34N 37°49' W 122°19'2 2.4
2014-Sep-09 23:34N 37°48' W 122°22'1 1.0
2014-Sep-09 22:33N 37°48' W 122°21'0 0.0
2014-Sep-09 21:33N 37°48' W 122°21'0 0.0
2014-Sep-09 20:33N 37°48' W 122°21'2 1.8
2014-Sep-09 19:33N 37°48' W 122°18'0 0.1
2014-Sep-09 18:33N 37°48' W 122°18'2 1.7
2014-Sep-09 17:33N 37°49' W 122°19'0 0.0
2014-Sep-09 16:33N 37°49' W 122°19'0 0.0
2014-Sep-09 15:33N 37°49' W 122°19'0 0.0
2014-Sep-09 14:33N 37°49' W 122°19'1 0.7
2014-Sep-09 13:33N 37°49' W 122°19'0 0.1
2014-Sep-09 12:33N 37°49' W 122°19'1 0.6
2014-Sep-09 11:33N 37°49' W 122°19'0 0.0
2014-Sep-09 10:33N 37°49' W 122°19'0 0.0
2014-Sep-09 09:33N 37°49' W 122°19'0 0.0
2014-Sep-09 08:33N 37°49' W 122°19'0 0.0
2014-Sep-09 07:33N 37°49' W 122°19'0 0.0
2014-Sep-09 06:33N 37°49' W 122°19'0 0.0
2014-Sep-09 05:33N 37°49' W 122°19'0 0.0
2014-Sep-09 04:33N 37°49' W 122°19'0 0.0
2014-Sep-09 03:33N 37°49' W 122°19'0 0.0
2014-Sep-09 02:33N 37°49' W 122°19'0 0.0
2014-Sep-09 01:33N 37°49' W 122°19'2 1.6
2014-Sep-09 00:33N 37°48' W 122°19'1 1.0
2014-Sep-08 23:33N 37°48' W 122°18'3 3.2
2014-Sep-08 22:33N 37°48' W 122°22'3 2.8
2014-Sep-08 21:33N 37°49' W 122°19'0 0.0
2014-Sep-08 20:33N 37°49' W 122°19'0 0.0
2014-Sep-08 19:33N 37°49' W 122°19'0 0.0
2014-Sep-08 18:33N 37°49' W 122°19'0 0.0
2014-Sep-08 17:33N 37°49' W 122°19'0 0.0
2014-Sep-08 16:33N 37°49' W 122°19'0 0.0
2014-Sep-08 15:33N 37°49' W 122°19'0 0.0
2014-Sep-08 14:33N 37°49' W 122°19'0 0.0
2014-Sep-08 13:33N 37°49' W 122°19'0 0.0
2014-Sep-08 12:33N 37°49' W 122°19'0 0.0
2014-Sep-08 11:33N 37°49' W 122°19'0 0.0
2014-Sep-08 10:33N 37°49' W 122°19'0 0.0
2014-Sep-08 09:33N 37°49' W 122°19'0 0.0
2014-Sep-08 08:33N 37°49' W 122°19'0 0.0
2014-Sep-08 07:33N 37°49' W 122°19'0 0.0
2014-Sep-08 06:33N 37°49' W 122°19'0 0.0
2014-Sep-08 05:33N 37°49' W 122°19'0 0.0
2014-Sep-08 04:33N 37°49' W 122°19'0 0.0
2014-Sep-08 03:33N 37°49' W 122°19'0 0.0
2014-Sep-08 02:34N 37°49' W 122°19'0 0.0
2014-Sep-08 01:33N 37°49' W 122°19'0 0.0
2014-Sep-08 00:33N 37°49' W 122°19'0 0.0
2014-Sep-07 23:33N 37°49' W 122°19'0 0.0
2014-Sep-07 22:34N 37°49' W 122°19'0 0.0
2014-Sep-07 21:33N 37°49' W 122°19'0 0.0
2014-Sep-07 20:33N 37°49' W 122°19'0 0.0
2014-Sep-07 19:33N 37°49' W 122°19'0 0.0
2014-Sep-07 18:33N 37°49' W 122°19'0 0.0
2014-Sep-07 17:33N 37°49' W 122°19'0 0.0
2014-Sep-07 16:33N 37°49' W 122°19'0 0.0
2014-Sep-07 15:33N 37°49' W 122°19'0 0.0
2014-Sep-07 14:33N 37°49' W 122°19'0 0.0
2014-Sep-07 13:33N 37°49' W 122°19'0 0.0
2014-Sep-07 12:33N 37°49' W 122°19'0 0.0
2014-Sep-07 11:33N 37°49' W 122°19'0 0.0
2014-Sep-07 10:33N 37°49' W 122°19'0 0.0
2014-Sep-07 09:33N 37°49' W 122°19'0 0.0
2014-Sep-07 08:33N 37°49' W 122°19'0 0.0
2014-Sep-07 07:33N 37°49' W 122°19'0 0.0
2014-Sep-07 06:33N 37°49' W 122°19'0 0.0
2014-Sep-07 05:33N 37°49' W 122°19'0 0.0
2014-Sep-07 04:33N 37°49' W 122°19'0 0.0
2014-Sep-07 03:33N 37°49' W 122°19'0 0.0
2014-Sep-07 02:33N 37°49' W 122°19'1 0.7
2014-Sep-07 01:33N 37°49' W 122°19'0 0.1
2014-Sep-07 00:33N 37°49' W 122°19'2 1.8
2014-Sep-06 23:33N 37°48' W 122°21'2 2.5
2014-Sep-06 22:33N 37°49' W 122°19'0 0.0
2014-Sep-06 21:34N 37°49' W 122°19'0 0.0
2014-Sep-06 20:33N 37°49' W 122°19'0 0.0
2014-Sep-06 19:33N 37°49' W 122°19'0 0.0
2014-Sep-06 18:34N 37°49' W 122°19'0 0.0
2014-Sep-06 17:33N 37°49' W 122°19'0 0.0
2014-Sep-06 16:34N 37°49' W 122°19'0 0.0
2014-Sep-06 15:34N 37°49' W 122°19'0 0.0
2014-Sep-06 14:34N 37°49' W 122°19'  

Dump ship's entire track history